createdAt,value
2022-08-07T00:03:57.903Z,97
2022-08-07T00:12:27.462Z,114
2022-08-07T00:21:55.709Z,77
2022-08-07T00:31:41.285Z,92
2022-08-07T00:39:38.283Z,135
2022-08-07T00:49:24.710Z,156
2022-08-07T00:59:10.356Z,185
2022-08-07T01:07:13.644Z,193
2022-08-07T01:16:38.829Z,137
2022-08-07T01:24:50.531Z,135
2022-08-07T01:33:53.930Z,176
2022-08-07T01:41:32.572Z,123
2022-08-07T01:51:24.866Z,93
2022-08-07T02:00:52.494Z,152
2022-08-07T02:11:03.425Z,170
2022-08-07T02:20:05.879Z,172
2022-08-07T02:28:27.057Z,91
2022-08-07T02:37:43.953Z,166
2022-08-07T02:46:32.841Z,120
2022-08-07T02:55:15.521Z,124
2022-08-07T03:03:29.436Z,179
2022-08-07T03:11:52.027Z,138
2022-08-07T03:19:42.886Z,99
2022-08-07T03:28:49.604Z,206
2022-08-07T03:36:59.887Z,139
2022-08-07T03:45:31.467Z,136
2022-08-07T03:55:07.628Z,131
2022-08-07T04:04:28.665Z,128
2022-08-07T04:15:11.263Z,165
2022-08-07T04:25:18.824Z,154
2022-08-07T04:34:24.005Z,176
2022-08-07T04:42:44.607Z,120
2022-08-07T04:52:33.894Z,162
2022-08-07T05:05:52.246Z,114
2022-08-07T05:16:10.796Z,158
2022-08-07T05:25:11.629Z,154
2022-08-07T05:34:38.372Z,152
2022-08-07T05:44:46.680Z,147
2022-08-07T05:54:53.642Z,161
2022-08-07T06:03:27.602Z,142
2022-08-07T06:13:13.509Z,133
2022-08-07T06:24:38.898Z,149
2022-08-07T06:33:15.926Z,85
2022-08-07T06:43:20.895Z,96
2022-08-07T06:52:31.169Z,65
2022-08-07T07:05:06.041Z,66
2022-08-07T07:22:05.560Z,85
2022-08-07T07:34:30.763Z,90
2022-08-07T07:43:18.635Z,35
2022-08-07T07:54:33.568Z,84
2022-08-07T08:04:45.214Z,104
2022-08-07T08:13:36.834Z,71
2022-08-07T08:24:36.690Z,75
2022-08-07T08:33:55.615Z,57
2022-08-07T08:42:31.424Z,68
2022-08-07T08:51:14.399Z,87
2022-08-07T08:59:47.972Z,40
2022-08-07T09:08:07.142Z,46
2022-08-07T09:17:33.898Z,85
2022-08-07T09:30:42.172Z,73
2022-08-07T09:39:53.550Z,34
2022-08-07T09:53:26.388Z,68
2022-08-07T10:02:29.702Z,34
2022-08-07T10:12:39.598Z,67
2022-08-07T10:21:04.818Z,55
2022-08-07T10:30:03.810Z,36
2022-08-07T10:39:10.273Z,32
2022-08-07T10:48:05.732Z,40
2022-08-07T10:57:07.174Z,30
2022-08-07T11:05:44.974Z,42
2022-08-07T11:16:07.109Z,59
2022-08-07T11:24:18.417Z,32
2022-08-07T11:33:07.857Z,45
2022-08-07T11:42:06.582Z,27
2022-08-07T11:51:41.044Z,51
2022-08-07T12:01:58.902Z,11
2022-08-07T12:12:08.933Z,61
2022-08-07T12:20:36.661Z,26
2022-08-07T12:31:00.341Z,26
2022-08-07T12:40:36.582Z,45
2022-08-07T12:49:25.223Z,38
2022-08-07T12:59:20.546Z,37
2022-08-07T13:10:11.059Z,27
2022-08-07T13:18:30.210Z,38
2022-08-07T13:28:06.392Z,38
2022-08-07T13:38:36.073Z,23
2022-08-07T13:50:32.407Z,57
2022-08-07T13:59:46.192Z,21
2022-08-07T14:08:40.325Z,31
2022-08-07T14:17:32.613Z,35
2022-08-07T16:31:50.652Z,53
2022-08-07T16:42:23.137Z,51
2022-08-07T16:55:48.396Z,54
2022-08-07T17:06:02.590Z,31
2022-08-07T17:16:24.958Z,28
2022-08-07T17:25:19.706Z,42
2022-08-07T17:35:08.968Z,43
2022-08-07T17:46:34.319Z,26
2022-08-07T17:56:34.590Z,36
2022-08-07T18:05:22.055Z,27
2022-08-07T18:15:32.497Z,38
2022-08-07T18:27:41.769Z,40
2022-08-07T18:37:09.184Z,22
2022-08-07T18:50:52.715Z,47
2022-08-07T19:02:19.614Z,29
2022-08-07T19:12:09.975Z,43
2022-08-07T19:22:33.565Z,43
2022-08-07T19:35:43.658Z,29
2022-08-07T19:45:53.110Z,29
2022-08-07T19:58:35.954Z,31
2022-08-07T20:07:23.388Z,24
2022-08-07T20:17:56.391Z,31
2022-08-07T20:26:29.775Z,37
2022-08-07T20:35:26.311Z,68
2022-08-07T20:44:05.290Z,51
2022-08-07T20:54:41.596Z,50
2022-08-07T21:03:04.835Z,42
2022-08-07T21:11:50.597Z,23
2022-08-07T21:22:00.039Z,48
2022-08-07T21:30:05.128Z,48
2022-08-07T21:39:44.594Z,60
2022-08-07T21:49:16.900Z,53
2022-08-07T21:58:18.389Z,36
2022-08-07T22:07:03.765Z,45
2022-08-07T22:16:38.267Z,41
2022-08-07T22:25:07.731Z,54
2022-08-07T22:33:53.448Z,45
2022-08-07T22:42:44.409Z,41
2022-08-07T22:52:39.763Z,64
2022-08-07T23:00:45.545Z,28
2022-08-07T23:11:51.201Z,58
2022-08-07T23:22:46.413Z,59
2022-08-07T23:35:09.021Z,52
2022-08-07T23:43:51.344Z,75
2022-08-07T23:53:50.050Z,25
